Observations for Trim Patrick St
| Time | AQI | Temp °C | Hum % | Pres Pa | CO μg/m³ | H₂S μg/m³ | NO μg/m³ | NO₂ μg/m³ | O₃ μg/m³ | SO₂ μg/m³ | PM1 μg/m³ | PM2.5 μg/m³ | PM10 μg/m³ |
|---|---|---|---|---|---|---|---|---|---|---|---|---|---|
| Saturday 1 August 2026 | |||||||||||||
| 14:19 | 2 | 26.1 | 35 | 68,987 | 0 | 4.81 | 2.11 | 18.6 | 72.66 | 10.3 | 9.71 | 18.47 | 18.96 |
| 14:18 | 2 | 26 | 35 | 68,989 | 0 | 0.9 | 2.07 | 10.12 | 66.94 | 9.32 | 10.57 | 20.05 | 22.06 |
| 14:17 | 2 | 26 | 36 | 68,995 | 0 | 5.21 | 1.89 | 11.46 | 76.96 | 10.1 | 14.86 | 26.31 | 28.95 |
| 14:16 | 2 | 26.1 | 36 | 68,973 | 0 | 3.88 | 1.94 | 10.79 | 79.25 | 10.39 | 14.86 | 24.74 | 24.93 |
| 14:15 | 2 | 26 | 35 | 68,971 | 0 | 5.72 | 1.95 | 13.06 | 90.39 | 9.69 | 10.57 | 22.42 | 26.04 |
| 14:14 | 2 | 26.1 | 36 | 68,971 | 0 | 2.62 | 2.07 | 11.5 | 87.84 | 10.08 | 10.57 | 21.59 | 23.75 |
| 14:13 | 2 | 26 | 34 | 68,971 | 0 | 1.99 | 2.14 | 10.55 | 73.51 | 9.75 | 14 | 21.72 | 23.89 |
| 14:12 | 2 | 26.1 | 35 | 68,971 | 0 | 0 | 2.14 | 10.46 | 73.77 | 9.67 | 11.43 | 22.44 | 24.05 |
| 14:11 | 2 | 26.1 | 36 | 68,969 | 0 | 0 | 2.13 | 10.87 | 70.14 | 9.51 | 10.57 | 19.24 | 21.16 |
| 14:10 | 2 | 26.1 | 35 | 68,969 | 0 | 0 | 2.15 | 9.66 | 69.53 | 9.14 | 8.86 | 18.49 | 20.34 |
| 14:09 | 2 | 26.1 | 35 | 68,969 | 0 | 0.89 | 1.97 | 10.57 | 90.55 | 10.34 | 9.71 | 18.45 | 20.3 |
| 14:08 | 2 | 26 | 35 | 68,971 | 0 | 0 | 2.16 | 9.56 | 68.91 | 9.3 | 5.43 | 12.92 | 14.22 |
| 14:07 | 2 | 26 | 35 | 69,002 | 0 | 0 | 2.04 | 10.91 | 72.41 | 9.33 | 2.86 | 8.13 | 8.95 |
| 14:05 | 2 | 25.9 | 35 | 68,991 | 0 | 0 | 1.7 | 10.68 | 65.99 | 8.36 | 2 | 8.13 | 8.95 |
| 14:04 | 2 | 25.8 | 35 | 68,995 | 0 | 0 | 2.13 | 10.91 | 74.44 | 9.2 | 4.57 | 11.31 | 12.44 |
| 14:03 | 2 | 25.8 | 36 | 68,999 | 0 | 1.77 | 1.81 | 11.09 | 83.76 | 9.76 | 8.86 | 15.98 | 17.57 |
| 14:02 | 2 | 25.7 | 35 | 68,977 | 0 | 2.09 | 1.61 | 11.71 | 72.36 | 9.36 | 6.29 | 15.3 | 16.83 |
| 13:58 | 2 | 25.5 | 36 | 68,993 | 0 | 6.95 | 1.58 | 13.12 | 79.09 | 9.26 | 2.86 | 8.87 | 9.76 |
| 13:56 | 2 | 25.4 | 36 | 68,945 | 0 | 3.73 | 1.53 | 10.84 | 77.98 | 9.47 | 4.57 | 10.48 | 11.52 |
| 13:49 | 2 | 25.4 | 36 | 68,947 | 0 | 7.86 | 1.48 | 10.22 | 82.14 | 10.04 | 2.86 | 8.86 | 9.75 |